Barto, Mississippi
Current Conditions -  °F | °C
As of 9:53 PM on Wednesday 28 Jan 2015 (Local Time) from KMCB Reporting Station
Clear Clear  
Wind Chill: 50°   Ceiling: Unl
Heat Index: 50°   Visibility: 10mi
Dew Point: 40°   Wind: 7mph
Humidity: 68%   Direction: 180°S
Pressure: 30.2"   Gusts: NA
Location:  31.1693°N, 90.3678°W
Report Text: KMCB 290353Z AUTO 18006KT 10SM CLR 10/04 A3020 RMK AO2 SLP226 T01000044
Loading
Personal Weather Stations






























Interactive Weather Map New forecast layout! Learn more

10-Day Weather Forecast

Advertisements
Track Severe Weather on mobile